Time;durP1;ratioP1;P1;durP2;ratioP2;P2;SDS_P1;SDS_P2;PMS_P1;PMS_P2;Temp;Humidity;BMP_temperature;BMP_pressure;BME280_temperature;BME280_humidity;BME280_pressure;Samples;Min_cycle;Max_cycle;Signal;HPM_P1;HPM_P2
2020/12/09 20:48:33;;;;;;;44.10;27.27;;;;;;;9.35;68.19;93047.69;5042430;27;20411;-80
2020/12/09 20:50:59;;;;;;;56.17;33.67;;;;;;;9.47;68.27;93082.25;5027169;28;20494;-80
2020/12/09 20:53:27;;;;;;;41.60;25.83;;;;;;;9.52;68.37;93103.22;5037107;28;20048;-80
2020/12/09 20:55:52;;;;;;;36.97;24.45;;;;;;;9.50;68.68;93102.72;5035603;28;20059;-80
2020/12/09 20:58:18;;;;;;;22.05;16.33;;;;;;;9.44;68.77;93117.88;5036318;28;20029;-80
2020/12/09 21:00:43;;;;;;;30.27;18.65;;;;;;;9.46;68.63;93120.22;5036604;28;20444;-80
2020/12/09 21:03:09;;;;;;;29.58;20.13;;;;;;;9.58;68.39;93115.19;5027758;28;20087;-80
2020/12/09 21:05:34;;;;;;;29.70;19.63;;;;;;;9.42;68.42;93103.44;5031542;28;20045;-82
2020/12/09 21:08:00;;;;;;;24.80;18.83;;;;;;;9.48;68.30;93107.53;5013901;28;20042;-83
2020/12/09 21:10:26;;;;;;;24.52;18.13;;;;;;;9.56;68.09;93131.34;5027385;28;20037;-82
2020/12/09 21:12:52;;;;;;;29.25;20.15;;;;;;;9.50;68.23;93123.84;5014069;28;20056;-80
2020/12/09 21:15:18;;;;;;;32.47;22.05;;;;;;;9.53;68.20;93113.47;5028425;28;20044;-83
2020/12/09 21:17:43;;;;;;;41.97;24.73;;;;;;;9.38;68.10;93092.69;5021961;28;20042;-82
2020/12/09 21:20:09;;;;;;;54.80;32.35;;;;;;;9.19;68.23;93091.31;5013366;28;20062;-81
2020/12/09 21:22:38;;;;;;;42.88;28.90;;;;;;;9.36;68.40;93110.69;5014880;28;20033;-81
2020/12/09 21:25:04;;;;;;;56.88;30.80;;;;;;;9.39;68.26;93119.84;5036205;28;20025;-81
2020/12/09 21:27:29;;;;;;;40.30;25.65;;;;;;;9.36;68.28;93115.97;5032480;28;20041;-81
2020/12/09 21:29:55;;;;;;;40.50;24.65;;;;;;;9.34;68.41;93101.50;5032592;28;20601;-81
2020/12/09 21:32:20;;;;;;;35.25;23.65;;;;;;;9.33;68.44;93098.13;5033445;28;20041;-80
2020/12/09 21:34:46;;;;;;;37.63;24.05;;;;;;;9.43;68.33;93102.38;5030122;28;20029;-81
2020/12/09 21:37:11;;;;;;;36.10;21.90;;;;;;;9.38;68.21;93102.50;5017700;28;20013;-81
2020/12/09 21:39:38;;;;;;;31.45;19.80;;;;;;;9.23;68.04;93065.91;5026583;28;20050;-81
2020/12/09 21:42:04;;;;;;;33.13;19.65;;;;;;;9.43;68.22;93094.47;5021701;28;20156;-81
2020/12/09 21:44:30;;;;;;;41.50;26.88;;;;;;;9.30;68.34;93087.34;5024312;28;20045;-81
2020/12/09 21:46:56;;;;;;;24.38;18.30;;;;;;;9.27;68.23;93075.56;5032560;28;20046;-80
2020/12/09 21:49:21;;;;;;;22.42;15.88;;;;;;;9.37;68.42;93085.88;5016120;28;20024;-80
2020/12/09 21:51:47;;;;;;;31.98;20.17;;;;;;;9.24;68.19;93059.53;4996033;28;20050;-80
2020/12/09 21:54:16;;;;;;;26.88;18.58;;;;;;;9.50;67.94;93094.81;5028193;28;20033;-81
2020/12/09 21:56:42;;;;;;;23.13;16.33;;;;;;;9.45;67.95;93089.66;5035493;28;20036;-80
2020/12/09 21:59:08;;;;;;;14.77;11.93;;;;;;;9.33;68.20;93081.50;5024568;28;20049;-80
2020/12/09 22:01:34;;;;;;;18.58;12.70;;;;;;;9.34;68.57;93088.31;5021322;28;20021;-80
2020/12/09 22:04:00;;;;;;;22.60;14.65;;;;;;;9.44;68.64;93085.47;5022363;28;20041;-80
2020/12/09 22:06:25;;;;;;;21.88;13.38;;;;;;;9.41;68.44;93080.78;4987856;28;20056;-81
2020/12/09 22:08:51;;;;;;;21.48;15.70;;;;;;;9.46;68.42;93073.53;5011217;28;20038;-80
2020/12/09 22:11:19;;;;;;;30.02;21.40;;;;;;;9.43;68.48;93084.69;5021551;28;20041;-81
2020/12/09 22:13:46;;;;;;;46.60;32.10;;;;;;;9.48;68.62;93097.00;5019888;28;20025;-80
2020/12/09 22:16:13;;;;;;;40.67;26.95;;;;;;;9.56;68.42;93106.81;5004105;28;21260;-81
2020/12/09 22:18:39;;;;;;;30.63;19.55;;;;;;;9.58;68.82;93107.28;5009312;28;20092;-81
2020/12/09 22:21:09;;;;;;;25.75;17.55;;;;;;;9.59;68.76;93103.56;5009889;28;20514;-81
2020/12/09 22:23:35;;;;;;;34.30;23.30;;;;;;;9.57;68.62;93095.19;5024558;28;20041;-81
2020/12/09 22:26:01;;;;;;;34.00;24.80;;;;;;;9.53;68.73;93075.75;5018357;28;20071;-81
2020/12/09 22:28:26;;;;;;;21.38;15.43;;;;;;;9.53;68.41;93073.91;5018577;28;20394;-80
2020/12/09 22:30:52;;;;;;;26.42;15.63;;;;;;;9.76;68.41;93098.44;5023157;28;20044;-81
2020/12/09 22:33:17;;;;;;;23.67;16.13;;;;;;;9.62;69.07;93078.47;5021633;28;20076;-81
2020/12/09 22:35:42;;;;;;;21.55;14.80;;;;;;;9.77;68.95;93112.41;5023119;28;20117;-81
2020/12/09 22:38:08;;;;;;;18.77;12.50;;;;;;;9.69;69.30;93098.06;5022315;28;20124;-81
2020/12/09 22:40:33;;;;;;;21.77;14.38;;;;;;;9.81;69.23;93093.06;5027260;28;20029;-81
2020/12/09 22:42:59;;;;;;;19.95;13.43;;;;;;;9.83;69.24;93088.22;5002166;28;20434;-81
2020/12/09 22:45:25;;;;;;;20.30;13.30;;;;;;;9.87;69.00;93091.81;4983044;28;20077;-81
2020/12/09 22:47:51;;;;;;;19.58;13.40;;;;;;;9.88;69.00;93085.47;4999912;28;20058;-81
2020/12/09 22:50:16;;;;;;;49.22;30.25;;;;;;;9.95;68.95;93087.69;5002326;28;20065;-81
2020/12/09 22:52:42;;;;;;;19.23;15.30;;;;;;;9.96;69.80;93082.13;5002617;28;20026;-81
2020/12/09 22:55:07;;;;;;;25.95;14.77;;;;;;;10.02;69.54;93074.09;5009595;28;20017;-81
2020/12/09 22:57:33;;;;;;;21.17;17.00;;;;;;;10.05;69.13;93090.09;5023709;28;20045;-81
2020/12/09 22:59:58;;;;;;;19.60;15.63;;;;;;;10.04;69.02;93071.91;5022045;28;20046;-81
2020/12/09 23:02:24;;;;;;;20.58;16.05;;;;;;;9.93;69.12;93060.81;5024214;28;20394;-80
2020/12/09 23:04:49;;;;;;;20.30;14.38;;;;;;;10.02;69.05;93079.38;5023611;28;20029;-81
2020/12/09 23:07:14;;;;;;;20.75;13.45;;;;;;;9.99;69.13;93060.41;5024706;28;20116;-80
2020/12/09 23:09:40;;;;;;;23.80;16.70;;;;;;;9.95;69.20;93059.44;5019460;28;20052;-80
2020/12/09 23:12:05;;;;;;;20.73;13.82;;;;;;;9.93;69.17;93050.25;5021396;28;20130;-81
2020/12/09 23:14:31;;;;;;;30.00;18.60;;;;;;;9.96;69.19;93037.25;5004694;28;20033;-81
2020/12/09 23:16:56;;;;;;;21.83;15.85;;;;;;;9.92;69.07;93033.66;5019629;28;20411;-80
2020/12/09 23:19:22;;;;;;;21.92;15.35;;;;;;;10.05;68.80;93031.25;5024568;28;20013;-80
2020/12/09 23:21:49;;;;;;;32.38;22.67;;;;;;;10.06;68.99;93048.63;5019510;28;20053;-80
2020/12/09 23:24:14;;;;;;;27.67;19.75;;;;;;;9.94;69.18;93034.13;5006627;28;20036;-80
2020/12/09 23:26:40;;;;;;;22.92;16.55;;;;;;;10.02;69.22;93052.97;5000257;28;20042;-80
2020/12/09 23:29:06;;;;;;;20.60;14.50;;;;;;;9.95;69.16;93037.56;5007207;28;20041;-80
2020/12/09 23:31:31;;;;;;;24.42;17.45;;;;;;;9.90;69.40;93040.31;5023481;28;20585;-81
2020/12/09 23:33:57;;;;;;;26.20;17.77;;;;;;;9.97;69.36;93053.84;5021974;28;20304;-81
2020/12/09 23:36:22;;;;;;;17.00;12.20;;;;;;;9.91;69.41;93041.88;5022160;28;20167;-80
2020/12/09 23:38:48;;;;;;;16.80;12.50;;;;;;;10.00;69.19;93038.22;5021108;28;20585;-80
2020/12/09 23:41:20;;;;;;;16.95;13.82;;;;;;;10.06;69.19;93030.16;5023540;28;20049;-80
2020/12/09 23:43:49;;;;;;;19.05;12.88;;;;;;;10.02;69.14;93029.22;5019887;28;20032;-80
2020/12/09 23:46:15;;;;;;;17.70;13.05;;;;;;;9.99;69.13;93025.31;5026658;28;20017;-80
2020/12/09 23:48:41;;;;;;;29.10;21.58;;;;;;;10.05;68.88;93044.44;5021113;28;20709;-80
2020/12/09 23:51:07;;;;;;;29.65;21.60;;;;;;;10.00;68.71;93032.94;5020523;28;20052;-80
2020/12/09 23:53:32;;;;;;;24.05;17.50;;;;;;;10.02;68.91;93038.66;5020966;28;20041;-80
2020/12/09 23:55:58;;;;;;;25.58;19.45;;;;;;;10.02;68.93;93060.88;5019847;28;20044;-80
2020/12/09 23:58:23;;;;;;;19.13;14.20;;;;;;;9.86;69.13;93040.16;5023339;28;20468;-80
